MAPA DE AEROPUERTO

INFORMACIÓN METAR y TAF


Deprecated: The each() function is deprecated. This message will be suppressed on further calls in /home/customer/www/clickair-va.com/public_html/VAM/vam/helpers/get_metar.php on line 20
METAR FOR LFPG
ADDS - METARS form results

(0334 UTC 25 May 2022)
Data provider http://aviationweather.gov/metar/data/
 
METAR text: LFPG 250330Z 27005KT 9999 SCT039 10/09 Q1016 NOSIG
Conditions at: LFPG (CHARLES DE GAULL, FR) observed 0330 UTC 25 May 2022
Temperature: 10.0°C (50°F)
Dewpoint: 9.0°C (48°F) [RH = 93%]
Pressure (altimeter): 30.00 inches Hg (1016.0 mb)
Winds: from the W (270 degrees) at 6 MPH (5 knots; 2.6 m/s)
Visibility: 6 or more miles (10+ km)
Ceiling: at least 12,000 feet AGL
Clouds: scattered clouds at 3900 feet AGL
Weather: no significant weather observed at this time

METAR text: LFPG 250300Z 26004KT 9999 FEW039 10/09 Q1016 NOSIG
Conditions at: LFPG (CHARLES DE GAULL, FR) observed 0300 UTC 25 May 2022
Temperature: 10.0°C (50°F)
Dewpoint: 9.0°C (48°F) [RH = 93%]
Pressure (altimeter): 30.00 inches Hg (1016.0 mb)
Winds: from the W (260 degrees) at 5 MPH (4 knots; 2.1 m/s)
Visibility: 6 or more miles (10+ km)
Ceiling: at least 12,000 feet AGL
Clouds: few clouds at 3900 feet AGL
Weather: no significant weather observed at this time

Forecast for: LFPG (CHARLES DE GAULL, FR)
Text: TAF LFPG 242300Z 2500/2606 27005KT CAVOK TX19/2515Z TN09/2504Z
Forecast period: 0000 UTC 25 May 2022 to 0600 UTC 26 May 2022
Forecast type: FROM: standard forecast or significant change
Winds: from the W (270 degrees) at 6 MPH (5 knots; 2.6 m/s)
Visibility: 6 or more miles (10+ km)
Ceiling: unknown
Clouds: missing
Weather: no significant weather forecast for this period
Text: PROB30
Forecast period: 0300 to 0600 UTC 25 May 2022
Forecast type: TEMPORARY: The following changes expected for less than half the time period
Visibility: 1.86 miles (2.99 km)
Ceiling: unknown
Clouds: missing
Weather: BR  (mist)
Text: TEMPO 2503/2506 3000 BR
Forecast period: 1400 to 1600 UTC 25 May 2022
Forecast type: TEMPORARY: The following changes expected for less than half the time period
Winds: from the W (260 degrees) at 17 MPH (15 knots; 7.7 m/s)
gusting to 29 MPH (25 knots; 12.9 m/s)
Visibility: missing
Ceiling: unknown
Clouds: missing
Weather: no significant weather forecast for this period